sensor_id;sensor_type;location;lat;lon;timestamp;temperature;humidity
27384;DHT22;14851;51.166;4.760;2023-07-08T00:00:23;19.60;99.90
27384;DHT22;14851;51.166;4.760;2023-07-08T00:02:52;19.60;99.90
27384;DHT22;14851;51.166;4.760;2023-07-08T00:05:20;19.50;99.90
27384;DHT22;14851;51.166;4.760;2023-07-08T00:07:48;19.50;99.90
27384;DHT22;14851;51.166;4.760;2023-07-08T00:10:17;19.50;99.90
27384;DHT22;14851;51.166;4.760;2023-07-08T00:12:44;19.40;99.90
27384;DHT22;14851;51.166;4.760;2023-07-08T00:15:11;19.40;99.90
27384;DHT22;14851;51.166;4.760;2023-07-08T00:17:37;19.40;99.90
27384;DHT22;14851;51.166;4.760;2023-07-08T00:20:15;19.40;99.90
27384;DHT22;14851;51.166;4.760;2023-07-08T00:22:43;19.30;99.90
27384;DHT22;14851;51.166;4.760;2023-07-08T00:25:13;19.20;99.90
27384;DHT22;14851;51.166;4.760;2023-07-08T00:27:42;19.20;99.90
27384;DHT22;14851;51.166;4.760;2023-07-08T00:30:19;19.10;99.90
27384;DHT22;14851;51.166;4.760;2023-07-08T00:32:45;19.10;99.90
27384;DHT22;14851;51.166;4.760;2023-07-08T00:35:11;19.00;99.90
27384;DHT22;14851;51.166;4.760;2023-07-08T00:37:37;19.00;99.90
27384;DHT22;14851;51.166;4.760;2023-07-08T00:40:21;19.00;99.90
27384;DHT22;14851;51.166;4.760;2023-07-08T00:42:49;19.00;99.90
27384;DHT22;14851;51.166;4.760;2023-07-08T00:45:37;18.90;99.90
27384;DHT22;14851;51.166;4.760;2023-07-08T00:48:24;18.80;99.90
27384;DHT22;14851;51.166;4.760;2023-07-08T00:50:53;18.80;99.90
27384;DHT22;14851;51.166;4.760;2023-07-08T00:53:34;18.80;99.90
27384;DHT22;14851;51.166;4.760;2023-07-08T00:56:06;18.80;99.90
27384;DHT22;14851;51.166;4.760;2023-07-08T00:58:50;18.70;99.90
27384;DHT22;14851;51.166;4.760;2023-07-08T01:01:18;18.70;99.90
27384;DHT22;14851;51.166;4.760;2023-07-08T01:04:02;18.60;99.90
27384;DHT22;14851;51.166;4.760;2023-07-08T01:06:32;18.70;99.90
27384;DHT22;14851;51.166;4.760;2023-07-08T01:09:02;18.60;99.90
27384;DHT22;14851;51.166;4.760;2023-07-08T01:11:31;18.60;99.90
27384;DHT22;14851;51.166;4.760;2023-07-08T01:13:59;18.50;99.90
27384;DHT22;14851;51.166;4.760;2023-07-08T01:16:26;18.50;99.90
27384;DHT22;14851;51.166;4.760;2023-07-08T01:18:52;18.50;99.90
27384;DHT22;14851;51.166;4.760;2023-07-08T01:21:39;18.40;99.90
27384;DHT22;14851;51.166;4.760;2023-07-08T01:24:09;18.40;99.90
27384;DHT22;14851;51.166;4.760;2023-07-08T01:26:40;18.40;99.90
27384;DHT22;14851;51.166;4.760;2023-07-08T01:29:08;18.30;99.90
27384;DHT22;14851;51.166;4.760;2023-07-08T01:31:34;18.30;99.90
27384;DHT22;14851;51.166;4.760;2023-07-08T01:34:01;18.20;99.90
27384;DHT22;14851;51.166;4.760;2023-07-08T01:36:31;18.20;99.90
27384;DHT22;14851;51.166;4.760;2023-07-08T01:39:00;18.20;99.90
27384;DHT22;14851;51.166;4.760;2023-07-08T01:41:26;18.20;99.90
27384;DHT22;14851;51.166;4.760;2023-07-08T01:43:52;18.10;99.90
27384;DHT22;14851;51.166;4.760;2023-07-08T01:46:22;18.10;99.90
27384;DHT22;14851;51.166;4.760;2023-07-08T01:48:57;18.10;99.90
27384;DHT22;14851;51.166;4.760;2023-07-08T01:51:26;18.10;99.90
27384;DHT22;14851;51.166;4.760;2023-07-08T01:53:52;18.00;99.90
27384;DHT22;14851;51.166;4.760;2023-07-08T01:56:18;18.10;99.90
27384;DHT22;14851;51.166;4.760;2023-07-08T01:58:44;18.00;99.90
27384;DHT22;14851;51.166;4.760;2023-07-08T02:01:13;18.00;99.90
27384;DHT22;14851;51.166;4.760;2023-07-08T02:03:38;18.00;99.90
27384;DHT22;14851;51.166;4.760;2023-07-08T02:06:07;18.00;99.90
27384;DHT22;14851;51.166;4.760;2023-07-08T02:08:33;17.90;99.90
27384;DHT22;14851;51.166;4.760;2023-07-08T02:10:59;17.90;99.90
27384;DHT22;14851;51.166;4.760;2023-07-08T02:13:25;17.90;99.90
27384;DHT22;14851;51.166;4.760;2023-07-08T02:15:51;17.90;99.90
27384;DHT22;14851;51.166;4.760;2023-07-08T02:18:19;17.80;99.90
27384;DHT22;14851;51.166;4.760;2023-07-08T02:20:46;17.80;99.90
27384;DHT22;14851;51.166;4.760;2023-07-08T02:23:15;17.70;99.90
27384;DHT22;14851;51.166;4.760;2023-07-08T02:25:41;17.70;99.90
27384;DHT22;14851;51.166;4.760;2023-07-08T02:28:07;17.70;99.90
27384;DHT22;14851;51.166;4.760;2023-07-08T02:30:35;17.60;99.90
27384;DHT22;14851;51.166;4.760;2023-07-08T02:33:02;17.60;99.90
27384;DHT22;14851;51.166;4.760;2023-07-08T02:35:30;17.60;99.90
27384;DHT22;14851;51.166;4.760;2023-07-08T02:37:57;17.60;99.90
27384;DHT22;14851;51.166;4.760;2023-07-08T02:40:24;17.60;99.90
27384;DHT22;14851;51.166;4.760;2023-07-08T02:42:53;17.50;99.90
27384;DHT22;14851;51.166;4.760;2023-07-08T02:45:19;17.50;99.90
27384;DHT22;14851;51.166;4.760;2023-07-08T02:47:45;17.40;99.90
27384;DHT22;14851;51.166;4.760;2023-07-08T02:50:13;17.40;99.90
27384;DHT22;14851;51.166;4.760;2023-07-08T02:52:43;17.40;99.90
27384;DHT22;14851;51.166;4.760;2023-07-08T02:55:09;17.30;99.90
27384;DHT22;14851;51.166;4.760;2023-07-08T02:57:37;17.30;99.90
27384;DHT22;14851;51.166;4.760;2023-07-08T03:00:03;17.30;99.90
27384;DHT22;14851;51.166;4.760;2023-07-08T03:02:30;17.30;99.90
27384;DHT22;14851;51.166;4.760;2023-07-08T03:04:58;17.20;99.90
27384;DHT22;14851;51.166;4.760;2023-07-08T03:07:26;17.10;99.90
27384;DHT22;14851;51.166;4.760;2023-07-08T03:09:53;17.10;99.90
27384;DHT22;14851;51.166;4.760;2023-07-08T03:12:19;17.10;99.90
27384;DHT22;14851;51.166;4.760;2023-07-08T03:14:45;17.10;99.90
27384;DHT22;14851;51.166;4.760;2023-07-08T03:17:14;17.10;99.90
27384;DHT22;14851;51.166;4.760;2023-07-08T03:19:45;17.10;99.90
27384;DHT22;14851;51.166;4.760;2023-07-08T03:22:11;17.10;99.90
27384;DHT22;14851;51.166;4.760;2023-07-08T03:24:39;17.10;99.90
27384;DHT22;14851;51.166;4.760;2023-07-08T03:27:13;17.00;99.90
27384;DHT22;14851;51.166;4.760;2023-07-08T03:29:41;17.00;99.90
27384;DHT22;14851;51.166;4.760;2023-07-08T03:32:11;17.00;99.90
27384;DHT22;14851;51.166;4.760;2023-07-08T03:34:38;17.00;99.90
27384;DHT22;14851;51.166;4.760;2023-07-08T03:37:05;16.90;99.90
27384;DHT22;14851;51.166;4.760;2023-07-08T03:39:31;16.90;99.90
27384;DHT22;14851;51.166;4.760;2023-07-08T03:41:57;16.90;99.90
27384;DHT22;14851;51.166;4.760;2023-07-08T03:44:25;16.90;99.90
27384;DHT22;14851;51.166;4.760;2023-07-08T03:46:51;16.90;99.90
27384;DHT22;14851;51.166;4.760;2023-07-08T03:49:21;16.90;99.90
27384;DHT22;14851;51.166;4.760;2023-07-08T03:51:56;16.90;99.90
27384;DHT22;14851;51.166;4.760;2023-07-08T03:54:24;16.90;99.90
27384;DHT22;14851;51.166;4.760;2023-07-08T03:56:53;16.90;99.90
27384;DHT22;14851;51.166;4.760;2023-07-08T03:59:23;16.80;99.90
27384;DHT22;14851;51.166;4.760;2023-07-08T04:01:50;16.80;99.90
27384;DHT22;14851;51.166;4.760;2023-07-08T04:04:16;16.80;99.90
27384;DHT22;14851;51.166;4.760;2023-07-08T04:06:43;16.90;99.90
27384;DHT22;14851;51.166;4.760;2023-07-08T04:09:12;16.90;99.90
27384;DHT22;14851;51.166;4.760;2023-07-08T04:11:38;16.90;99.90
27384;DHT22;14851;51.166;4.760;2023-07-08T04:14:03;16.90;99.90
27384;DHT22;14851;51.166;4.760;2023-07-08T04:16:35;16.90;99.90
27384;DHT22;14851;51.166;4.760;2023-07-08T04:19:08;16.90;99.90
27384;DHT22;14851;51.166;4.760;2023-07-08T04:21:41;16.90;99.90
27384;DHT22;14851;51.166;4.760;2023-07-08T04:24:10;16.90;99.90
27384;DHT22;14851;51.166;4.760;2023-07-08T04:26:37;16.90;99.90
27384;DHT22;14851;51.166;4.760;2023-07-08T04:29:15;16.90;99.90
27384;DHT22;14851;51.166;4.760;2023-07-08T04:31:41;16.90;99.90
27384;DHT22;14851;51.166;4.760;2023-07-08T04:34:08;16.90;99.90
27384;DHT22;14851;51.166;4.760;2023-07-08T04:36:37;16.90;99.90
27384;DHT22;14851;51.166;4.760;2023-07-08T04:39:04;16.90;99.90
27384;DHT22;14851;51.166;4.760;2023-07-08T04:41:33;16.90;99.90
27384;DHT22;14851;51.166;4.760;2023-07-08T04:43:59;16.90;99.90
27384;DHT22;14851;51.166;4.760;2023-07-08T04:46:39;16.90;99.90
27384;DHT22;14851;51.166;4.760;2023-07-08T04:49:08;16.90;99.90
27384;DHT22;14851;51.166;4.760;2023-07-08T04:51:40;16.90;99.90
27384;DHT22;14851;51.166;4.760;2023-07-08T04:54:07;17.00;99.90
27384;DHT22;14851;51.166;4.760;2023-07-08T04:56:45;17.00;99.90
27384;DHT22;14851;51.166;4.760;2023-07-08T04:59:15;17.00;99.90
27384;DHT22;14851;51.166;4.760;2023-07-08T05:01:43;17.00;99.90
27384;DHT22;14851;51.166;4.760;2023-07-08T05:04:20;17.00;99.90
27384;DHT22;14851;51.166;4.760;2023-07-08T05:06:51;17.00;99.90
27384;DHT22;14851;51.166;4.760;2023-07-08T05:09:17;17.00;99.90
27384;DHT22;14851;51.166;4.760;2023-07-08T05:11:47;17.10;99.90
27384;DHT22;14851;51.166;4.760;2023-07-08T05:14:13;17.10;99.90
27384;DHT22;14851;51.166;4.760;2023-07-08T05:16:39;17.00;99.90
27384;DHT22;14851;51.166;4.760;2023-07-08T05:19:06;17.10;99.90
27384;DHT22;14851;51.166;4.760;2023-07-08T05:21:32;17.10;99.90
27384;DHT22;14851;51.166;4.760;2023-07-08T05:24:04;17.20;99.90
27384;DHT22;14851;51.166;4.760;2023-07-08T05:26:30;17.20;99.90
27384;DHT22;14851;51.166;4.760;2023-07-08T05:28:57;17.30;99.90
27384;DHT22;14851;51.166;4.760;2023-07-08T05:31:22;17.30;99.90
27384;DHT22;14851;51.166;4.760;2023-07-08T05:33:48;17.30;99.90
27384;DHT22;14851;51.166;4.760;2023-07-08T05:36:14;17.40;99.90
27384;DHT22;14851;51.166;4.760;2023-07-08T05:38:40;17.40;99.90
27384;DHT22;14851;51.166;4.760;2023-07-08T05:41:06;17.40;99.90
27384;DHT22;14851;51.166;4.760;2023-07-08T05:43:32;17.40;99.90
27384;DHT22;14851;51.166;4.760;2023-07-08T05:45:59;17.50;99.90
27384;DHT22;14851;51.166;4.760;2023-07-08T05:48:25;17.50;99.90
27384;DHT22;14851;51.166;4.760;2023-07-08T05:50:55;17.50;99.90
27384;DHT22;14851;51.166;4.760;2023-07-08T05:53:22;17.60;99.90
27384;DHT22;14851;51.166;4.760;2023-07-08T05:55:50;17.60;99.90
27384;DHT22;14851;51.166;4.760;2023-07-08T05:58:16;17.60;99.90
27384;DHT22;14851;51.166;4.760;2023-07-08T06:00:42;17.60;99.90
27384;DHT22;14851;51.166;4.760;2023-07-08T06:03:09;17.70;99.90
27384;DHT22;14851;51.166;4.760;2023-07-08T06:05:36;17.70;99.90
27384;DHT22;14851;51.166;4.760;2023-07-08T06:08:05;17.70;99.90
27384;DHT22;14851;51.166;4.760;2023-07-08T06:10:33;17.70;99.90
27384;DHT22;14851;51.166;4.760;2023-07-08T06:12:59;17.70;99.90
27384;DHT22;14851;51.166;4.760;2023-07-08T06:15:25;17.80;99.90
27384;DHT22;14851;51.166;4.760;2023-07-08T06:17:51;17.80;99.90
27384;DHT22;14851;51.166;4.760;2023-07-08T06:20:17;17.80;99.90
27384;DHT22;14851;51.166;4.760;2023-07-08T06:22:44;17.80;99.90
27384;DHT22;14851;51.166;4.760;2023-07-08T06:25:10;17.90;99.90
27384;DHT22;14851;51.166;4.760;2023-07-08T06:27:39;17.90;99.90
27384;DHT22;14851;51.166;4.760;2023-07-08T06:30:06;17.90;99.90
27384;DHT22;14851;51.166;4.760;2023-07-08T06:32:32;18.00;99.90
27384;DHT22;14851;51.166;4.760;2023-07-08T06:35:01;18.00;99.90
27384;DHT22;14851;51.166;4.760;2023-07-08T06:37:30;18.10;99.90
27384;DHT22;14851;51.166;4.760;2023-07-08T06:39:57;18.10;99.90
27384;DHT22;14851;51.166;4.760;2023-07-08T06:42:23;18.10;99.90
27384;DHT22;14851;51.166;4.760;2023-07-08T06:45:00;18.10;99.90
27384;DHT22;14851;51.166;4.760;2023-07-08T06:47:28;18.10;99.90
27384;DHT22;14851;51.166;4.760;2023-07-08T06:49:54;18.20;99.90
27384;DHT22;14851;51.166;4.760;2023-07-08T06:52:22;18.20;99.90
27384;DHT22;14851;51.166;4.760;2023-07-08T06:54:50;18.30;99.90
27384;DHT22;14851;51.166;4.760;2023-07-08T06:57:17;18.30;99.90
27384;DHT22;14851;51.166;4.760;2023-07-08T06:59:42;18.30;99.90
27384;DHT22;14851;51.166;4.760;2023-07-08T07:02:10;18.40;99.90
27384;DHT22;14851;51.166;4.760;2023-07-08T07:04:37;18.40;99.90
27384;DHT22;14851;51.166;4.760;2023-07-08T07:07:03;18.50;99.90
27384;DHT22;14851;51.166;4.760;2023-07-08T07:09:29;18.50;99.90
27384;DHT22;14851;51.166;4.760;2023-07-08T07:11:56;18.50;99.90
27384;DHT22;14851;51.166;4.760;2023-07-08T07:14:24;18.60;99.90
27384;DHT22;14851;51.166;4.760;2023-07-08T07:16:50;18.60;99.90
27384;DHT22;14851;51.166;4.760;2023-07-08T07:19:16;18.70;99.90
27384;DHT22;14851;51.166;4.760;2023-07-08T07:21:42;18.70;99.90
27384;DHT22;14851;51.166;4.760;2023-07-08T07:24:07;18.70;99.90
27384;DHT22;14851;51.166;4.760;2023-07-08T07:26:33;18.80;99.90
27384;DHT22;14851;51.166;4.760;2023-07-08T07:28:59;18.80;99.90
27384;DHT22;14851;51.166;4.760;2023-07-08T07:31:25;18.90;99.90
27384;DHT22;14851;51.166;4.760;2023-07-08T07:33:54;18.90;99.90
27384;DHT22;14851;51.166;4.760;2023-07-08T07:36:20;19.00;99.90
27384;DHT22;14851;51.166;4.760;2023-07-08T07:38:48;19.00;99.90
27384;DHT22;14851;51.166;4.760;2023-07-08T07:41:16;19.10;99.90
27384;DHT22;14851;51.166;4.760;2023-07-08T07:43:44;19.10;99.90
27384;DHT22;14851;51.166;4.760;2023-07-08T07:46:10;19.10;99.90
27384;DHT22;14851;51.166;4.760;2023-07-08T07:48:36;19.40;99.90
27384;DHT22;14851;51.166;4.760;2023-07-08T07:51:02;19.40;99.90
27384;DHT22;14851;51.166;4.760;2023-07-08T07:53:30;19.40;99.90
27384;DHT22;14851;51.166;4.760;2023-07-08T07:56:01;19.40;99.90
27384;DHT22;14851;51.166;4.760;2023-07-08T07:58:27;19.50;99.90
27384;DHT22;14851;51.166;4.760;2023-07-08T08:00:56;19.50;99.90
27384;DHT22;14851;51.166;4.760;2023-07-08T08:03:22;19.50;99.90
27384;DHT22;14851;51.166;4.760;2023-07-08T08:05:48;19.60;99.90
27384;DHT22;14851;51.166;4.760;2023-07-08T08:08:14;19.60;99.90
27384;DHT22;14851;51.166;4.760;2023-07-08T08:10:43;19.70;99.90
27384;DHT22;14851;51.166;4.760;2023-07-08T08:13:09;19.70;99.90
27384;DHT22;14851;51.166;4.760;2023-07-08T08:15:38;19.70;99.90
27384;DHT22;14851;51.166;4.760;2023-07-08T08:18:07;19.80;99.90
27384;DHT22;14851;51.166;4.760;2023-07-08T08:20:35;19.90;99.90
27384;DHT22;14851;51.166;4.760;2023-07-08T08:23:01;19.90;99.90
27384;DHT22;14851;51.166;4.760;2023-07-08T08:25:26;20.00;99.90
27384;DHT22;14851;51.166;4.760;2023-07-08T08:27:55;20.00;99.90
27384;DHT22;14851;51.166;4.760;2023-07-08T08:30:25;20.10;99.90
27384;DHT22;14851;51.166;4.760;2023-07-08T08:32:51;20.10;99.90
27384;DHT22;14851;51.166;4.760;2023-07-08T08:35:17;20.10;99.90
27384;DHT22;14851;51.166;4.760;2023-07-08T08:37:43;20.20;99.90
27384;DHT22;14851;51.166;4.760;2023-07-08T08:40:14;20.30;99.90
27384;DHT22;14851;51.166;4.760;2023-07-08T08:42:44;20.30;99.90
27384;DHT22;14851;51.166;4.760;2023-07-08T08:45:16;20.40;99.90
27384;DHT22;14851;51.166;4.760;2023-07-08T08:48:02;20.50;99.90
27384;DHT22;14851;51.166;4.760;2023-07-08T08:50:32;20.50;99.90
27384;DHT22;14851;51.166;4.760;2023-07-08T08:53:01;20.60;99.90
27384;DHT22;14851;51.166;4.760;2023-07-08T08:55:30;20.70;99.90
27384;DHT22;14851;51.166;4.760;2023-07-08T08:58:23;20.80;99.90
27384;DHT22;14851;51.166;4.760;2023-07-08T09:01:06;20.80;99.90
27384;DHT22;14851;51.166;4.760;2023-07-08T09:03:54;20.90;99.90
27384;DHT22;14851;51.166;4.760;2023-07-08T09:06:24;21.00;99.90
27384;DHT22;14851;51.166;4.760;2023-07-08T09:08:51;21.20;99.90
27384;DHT22;14851;51.166;4.760;2023-07-08T09:11:19;21.30;99.90
27384;DHT22;14851;51.166;4.760;2023-07-08T09:13:48;21.30;99.90
27384;DHT22;14851;51.166;4.760;2023-07-08T09:19:10;21.40;99.90
27384;DHT22;14851;51.166;4.760;2023-07-08T09:21:40;21.50;99.90
27384;DHT22;14851;51.166;4.760;2023-07-08T09:24:26;21.60;99.90
27384;DHT22;14851;51.166;4.760;2023-07-08T09:26:55;21.70;99.90
27384;DHT22;14851;51.166;4.760;2023-07-08T09:29:24;21.70;99.90
27384;DHT22;14851;51.166;4.760;2023-07-08T09:31:50;22.10;99.90
27384;DHT22;14851;51.166;4.760;2023-07-08T09:34:23;22.20;99.90
27384;DHT22;14851;51.166;4.760;2023-07-08T09:36:50;22.00;99.90
27384;DHT22;14851;51.166;4.760;2023-07-08T09:39:19;22.00;99.90
27384;DHT22;14851;51.166;4.760;2023-07-08T09:41:47;22.00;99.90
27384;DHT22;14851;51.166;4.760;2023-07-08T09:46:45;22.10;99.90
27384;DHT22;14851;51.166;4.760;2023-07-08T09:49:19;22.20;99.90
27384;DHT22;14851;51.166;4.760;2023-07-08T09:51:46;22.20;99.90
27384;DHT22;14851;51.166;4.760;2023-07-08T09:54:14;22.30;99.90
27384;DHT22;14851;51.166;4.760;2023-07-08T09:56:46;22.30;99.90
27384;DHT22;14851;51.166;4.760;2023-07-08T09:59:15;22.30;99.90
27384;DHT22;14851;51.166;4.760;2023-07-08T10:01:42;22.30;99.90
27384;DHT22;14851;51.166;4.760;2023-07-08T10:04:08;22.40;99.90
27384;DHT22;14851;51.166;4.760;2023-07-08T10:06:35;22.50;99.90
27384;DHT22;14851;51.166;4.760;2023-07-08T10:09:11;22.50;99.90
27384;DHT22;14851;51.166;4.760;2023-07-08T10:11:47;22.60;99.90
27384;DHT22;14851;51.166;4.760;2023-07-08T10:14:36;22.70;99.90
27384;DHT22;14851;51.166;4.760;2023-07-08T10:17:03;22.80;99.90
27384;DHT22;14851;51.166;4.760;2023-07-08T10:19:29;22.80;99.90
27384;DHT22;14851;51.166;4.760;2023-07-08T10:24:46;23.00;99.90
27384;DHT22;14851;51.166;4.760;2023-07-08T10:33:02;23.10;99.90
27384;DHT22;14851;51.166;4.760;2023-07-08T10:35:40;23.10;99.90
27384;DHT22;14851;51.166;4.760;2023-07-08T10:41:00;23.20;99.90
27384;DHT22;14851;51.166;4.760;2023-07-08T11:03:21;23.70;99.90
27384;DHT22;14851;51.166;4.760;2023-07-08T11:08:27;23.80;99.90
27384;DHT22;14851;51.166;4.760;2023-07-08T11:11:03;23.80;99.90
27384;DHT22;14851;51.166;4.760;2023-07-08T11:13:34;23.90;99.90
27384;DHT22;14851;51.166;4.760;2023-07-08T11:27:00;24.20;99.90
27384;DHT22;14851;51.166;4.760;2023-07-08T11:29:45;24.20;99.90
27384;DHT22;14851;51.166;4.760;2023-07-08T11:32:16;24.30;99.90
27384;DHT22;14851;51.166;4.760;2023-07-08T11:34:44;24.30;99.90
27384;DHT22;14851;51.166;4.760;2023-07-08T11:37:13;24.40;99.90
27384;DHT22;14851;51.166;4.760;2023-07-08T11:39:45;24.40;99.90
27384;DHT22;14851;51.166;4.760;2023-07-08T11:44:47;24.60;99.90
27384;DHT22;14851;51.166;4.760;2023-07-08T11:47:26;24.60;99.90
27384;DHT22;14851;51.166;4.760;2023-07-08T11:49:56;24.70;99.90
27384;DHT22;14851;51.166;4.760;2023-07-08T11:52:23;24.80;99.90
27384;DHT22;14851;51.166;4.760;2023-07-08T11:54:57;24.80;99.90
27384;DHT22;14851;51.166;4.760;2023-07-08T11:57:35;24.80;99.90
27384;DHT22;14851;51.166;4.760;2023-07-08T12:00:24;24.80;99.90
27384;DHT22;14851;51.166;4.760;2023-07-08T12:02:56;24.90;99.90
27384;DHT22;14851;51.166;4.760;2023-07-08T12:05:36;24.90;99.90
27384;DHT22;14851;51.166;4.760;2023-07-08T12:08:12;25.00;99.90
27384;DHT22;14851;51.166;4.760;2023-07-08T12:10:50;25.10;99.90
27384;DHT22;14851;51.166;4.760;2023-07-08T12:13:19;25.10;99.90
27384;DHT22;14851;51.166;4.760;2023-07-08T12:15:47;25.10;99.90
27384;DHT22;14851;51.166;4.760;2023-07-08T12:18:20;25.20;99.90
27384;DHT22;14851;51.166;4.760;2023-07-08T12:20:58;25.20;99.90
27384;DHT22;14851;51.166;4.760;2023-07-08T12:23:26;25.20;99.90
27384;DHT22;14851;51.166;4.760;2023-07-08T12:25:54;25.30;99.90
27384;DHT22;14851;51.166;4.760;2023-07-08T12:28:21;25.40;99.90
27384;DHT22;14851;51.166;4.760;2023-07-08T12:30:48;25.40;99.90
27384;DHT22;14851;51.166;4.760;2023-07-08T12:35:52;25.50;99.90
27384;DHT22;14851;51.166;4.760;2023-07-08T12:38:34;25.60;99.90
27384;DHT22;14851;51.166;4.760;2023-07-08T12:41:08;25.60;99.90
27384;DHT22;14851;51.166;4.760;2023-07-08T12:43:34;25.70;99.90
27384;DHT22;14851;51.166;4.760;2023-07-08T12:46:00;25.70;99.90
27384;DHT22;14851;51.166;4.760;2023-07-08T12:48:33;25.80;99.90
27384;DHT22;14851;51.166;4.760;2023-07-08T12:51:09;25.90;99.90
27384;DHT22;14851;51.166;4.760;2023-07-08T12:53:36;25.90;99.90
27384;DHT22;14851;51.166;4.760;2023-07-08T12:56:02;26.00;99.90
27384;DHT22;14851;51.166;4.760;2023-07-08T12:58:34;26.10;99.90
27384;DHT22;14851;51.166;4.760;2023-07-08T13:01:01;26.10;99.90
27384;DHT22;14851;51.166;4.760;2023-07-08T13:03:34;26.20;99.90
27384;DHT22;14851;51.166;4.760;2023-07-08T13:06:01;26.20;99.90
27384;DHT22;14851;51.166;4.760;2023-07-08T13:08:30;26.30;99.90
27384;DHT22;14851;51.166;4.760;2023-07-08T13:11:00;26.30;99.90
27384;DHT22;14851;51.166;4.760;2023-07-08T13:13:39;26.40;99.90
27384;DHT22;14851;51.166;4.760;2023-07-08T13:16:08;26.50;99.90
27384;DHT22;14851;51.166;4.760;2023-07-08T13:18:41;26.50;99.90
27384;DHT22;14851;51.166;4.760;2023-07-08T13:21:11;26.70;99.90
27384;DHT22;14851;51.166;4.760;2023-07-08T13:23:38;26.70;99.90
27384;DHT22;14851;51.166;4.760;2023-07-08T13:26:19;26.80;99.90
27384;DHT22;14851;51.166;4.760;2023-07-08T13:28:49;26.80;99.90
27384;DHT22;14851;51.166;4.760;2023-07-08T13:31:18;26.90;99.90
27384;DHT22;14851;51.166;4.760;2023-07-08T13:33:55;27.00;99.90
27384;DHT22;14851;51.166;4.760;2023-07-08T13:36:32;27.00;99.90
27384;DHT22;14851;51.166;4.760;2023-07-08T13:39:32;27.00;99.90
27384;DHT22;14851;51.166;4.760;2023-07-08T13:41:59;27.10;99.90
27384;DHT22;14851;51.166;4.760;2023-07-08T13:44:25;27.10;99.90
27384;DHT22;14851;51.166;4.760;2023-07-08T13:46:54;27.20;99.90
27384;DHT22;14851;51.166;4.760;2023-07-08T13:49:23;27.30;99.90
27384;DHT22;14851;51.166;4.760;2023-07-08T13:51:50;27.30;99.90
27384;DHT22;14851;51.166;4.760;2023-07-08T13:54:32;27.30;99.90
27384;DHT22;14851;51.166;4.760;2023-07-08T13:57:01;27.60;99.90
27384;DHT22;14851;51.166;4.760;2023-07-08T13:59:27;27.70;99.90
27384;DHT22;14851;51.166;4.760;2023-07-08T14:01:57;27.70;99.90
27384;DHT22;14851;51.166;4.760;2023-07-08T14:04:30;27.80;99.90
27384;DHT22;14851;51.166;4.760;2023-07-08T14:07:01;27.80;99.90
27384;DHT22;14851;51.166;4.760;2023-07-08T14:09:27;27.80;99.90
27384;DHT22;14851;51.166;4.760;2023-07-08T14:11:53;27.80;99.90
27384;DHT22;14851;51.166;4.760;2023-07-08T14:14:19;27.70;99.90
27384;DHT22;14851;51.166;4.760;2023-07-08T14:16:50;27.70;99.90
27384;DHT22;14851;51.166;4.760;2023-07-08T14:19:22;27.60;99.90
27384;DHT22;14851;51.166;4.760;2023-07-08T14:22:06;27.60;99.90
27384;DHT22;14851;51.166;4.760;2023-07-08T14:24:35;27.60;99.90
27384;DHT22;14851;51.166;4.760;2023-07-08T14:27:01;27.60;99.90
27384;DHT22;14851;51.166;4.760;2023-07-08T14:29:33;27.60;99.90
27384;DHT22;14851;51.166;4.760;2023-07-08T14:31:59;27.60;99.90
27384;DHT22;14851;51.166;4.760;2023-07-08T14:34:27;27.60;99.90
27384;DHT22;14851;51.166;4.760;2023-07-08T14:36:56;27.50;99.90
27384;DHT22;14851;51.166;4.760;2023-07-08T14:39:22;27.40;99.90
27384;DHT22;14851;51.166;4.760;2023-07-08T14:41:52;27.40;99.90
27384;DHT22;14851;51.166;4.760;2023-07-08T14:46:47;27.40;99.90
27384;DHT22;14851;51.166;4.760;2023-07-08T14:49:17;27.30;99.90
27384;DHT22;14851;51.166;4.760;2023-07-08T14:51:44;27.00;99.90
27384;DHT22;14851;51.166;4.760;2023-07-08T14:54:10;26.80;99.90
27384;DHT22;14851;51.166;4.760;2023-07-08T14:56:36;26.60;99.90
27384;DHT22;14851;51.166;4.760;2023-07-08T14:59:08;26.50;99.90
27384;DHT22;14851;51.166;4.760;2023-07-08T15:01:37;26.50;99.90
27384;DHT22;14851;51.166;4.760;2023-07-08T15:04:12;26.40;99.90
27384;DHT22;14851;51.166;4.760;2023-07-08T15:06:41;26.40;99.90
27384;DHT22;14851;51.166;4.760;2023-07-08T15:09:07;26.30;99.90
27384;DHT22;14851;51.166;4.760;2023-07-08T15:11:34;26.30;99.90
27384;DHT22;14851;51.166;4.760;2023-07-08T15:14:03;26.20;99.90
27384;DHT22;14851;51.166;4.760;2023-07-08T15:16:30;26.30;99.90
27384;DHT22;14851;51.166;4.760;2023-07-08T15:18:56;26.40;99.90
27384;DHT22;14851;51.166;4.760;2023-07-08T15:21:23;26.50;99.90
27384;DHT22;14851;51.166;4.760;2023-07-08T15:23:51;26.60;99.90
27384;DHT22;14851;51.166;4.760;2023-07-08T15:26:19;26.70;99.90
27384;DHT22;14851;51.166;4.760;2023-07-08T15:28:50;26.90;99.90
27384;DHT22;14851;51.166;4.760;2023-07-08T15:31:32;27.00;99.90
27384;DHT22;14851;51.166;4.760;2023-07-08T15:33:59;27.10;99.90
27384;DHT22;14851;51.166;4.760;2023-07-08T15:36:27;27.20;99.90
27384;DHT22;14851;51.166;4.760;2023-07-08T15:38:53;27.30;99.90
27384;DHT22;14851;51.166;4.760;2023-07-08T15:41:24;27.30;99.90
27384;DHT22;14851;51.166;4.760;2023-07-08T15:43:58;27.40;99.90
27384;DHT22;14851;51.166;4.760;2023-07-08T15:46:42;27.40;99.90
27384;DHT22;14851;51.166;4.760;2023-07-08T15:49:13;27.40;99.90
27384;DHT22;14851;51.166;4.760;2023-07-08T15:51:40;27.40;99.90
27384;DHT22;14851;51.166;4.760;2023-07-08T15:54:06;27.40;99.90
27384;DHT22;14851;51.166;4.760;2023-07-08T15:56:34;27.40;99.90
27384;DHT22;14851;51.166;4.760;2023-07-08T15:59:00;27.40;99.90
27384;DHT22;14851;51.166;4.760;2023-07-08T16:01:29;27.40;99.90
27384;DHT22;14851;51.166;4.760;2023-07-08T16:03:57;27.30;99.90
27384;DHT22;14851;51.166;4.760;2023-07-08T16:06:26;27.40;99.90
27384;DHT22;14851;51.166;4.760;2023-07-08T16:08:51;27.40;99.90
27384;DHT22;14851;51.166;4.760;2023-07-08T16:11:28;27.40;99.90
27384;DHT22;14851;51.166;4.760;2023-07-08T16:13:55;27.40;99.90
27384;DHT22;14851;51.166;4.760;2023-07-08T16:16:21;27.40;99.90
27384;DHT22;14851;51.166;4.760;2023-07-08T16:18:48;27.30;99.90
27384;DHT22;14851;51.166;4.760;2023-07-08T16:21:14;27.30;99.90
27384;DHT22;14851;51.166;4.760;2023-07-08T16:23:40;27.30;99.90
27384;DHT22;14851;51.166;4.760;2023-07-08T16:26:08;27.30;99.90
27384;DHT22;14851;51.166;4.760;2023-07-08T16:28:43;27.40;99.90
27384;DHT22;14851;51.166;4.760;2023-07-08T16:31:18;27.40;99.90
27384;DHT22;14851;51.166;4.760;2023-07-08T16:33:48;27.40;99.90
27384;DHT22;14851;51.166;4.760;2023-07-08T16:36:16;27.50;99.90
27384;DHT22;14851;51.166;4.760;2023-07-08T16:38:42;27.50;99.90
27384;DHT22;14851;51.166;4.760;2023-07-08T16:41:11;27.50;99.90